sensor_id;sensor_type;location;lat;lon;timestamp;temperature;humidity
38941;DHT22;43236;47.208;7.518;2023-04-09T00:01:48;10.50;89.50
38941;DHT22;43236;47.208;7.518;2023-04-09T00:04:35;10.50;89.70
38941;DHT22;43236;47.208;7.518;2023-04-09T00:07:22;10.50;89.70
38941;DHT22;43236;47.208;7.518;2023-04-09T00:10:11;10.40;89.80
38941;DHT22;43236;47.208;7.518;2023-04-09T00:12:58;10.40;90.10
38941;DHT22;43236;47.208;7.518;2023-04-09T00:15:45;10.40;90.30
38941;DHT22;43236;47.208;7.518;2023-04-09T00:18:32;10.40;90.50
38941;DHT22;43236;47.208;7.518;2023-04-09T00:21:19;10.40;90.50
38941;DHT22;43236;47.208;7.518;2023-04-09T00:24:06;10.40;90.80
38941;DHT22;43236;47.208;7.518;2023-04-09T00:26:55;10.40;91.40
38941;DHT22;43236;47.208;7.518;2023-04-09T00:29:42;10.50;90.90
38941;DHT22;43236;47.208;7.518;2023-04-09T00:32:29;10.50;90.90
38941;DHT22;43236;47.208;7.518;2023-04-09T00:35:16;10.50;90.80
38941;DHT22;43236;47.208;7.518;2023-04-09T00:38:03;10.50;91.00
38941;DHT22;43236;47.208;7.518;2023-04-09T00:40:50;10.50;90.90
38941;DHT22;43236;47.208;7.518;2023-04-09T00:43:39;10.50;90.80
38941;DHT22;43236;47.208;7.518;2023-04-09T00:46:26;10.40;90.70
38941;DHT22;43236;47.208;7.518;2023-04-09T00:49:13;10.40;90.80
38941;DHT22;43236;47.208;7.518;2023-04-09T00:52:00;10.30;90.70
38941;DHT22;43236;47.208;7.518;2023-04-09T00:54:48;10.30;90.80
38941;DHT22;43236;47.208;7.518;2023-04-09T00:57:35;10.20;91.00
38941;DHT22;43236;47.208;7.518;2023-04-09T01:00:24;10.20;90.90
38941;DHT22;43236;47.208;7.518;2023-04-09T01:03:12;10.10;91.30
38941;DHT22;43236;47.208;7.518;2023-04-09T01:06:05;10.10;91.00
38941;DHT22;43236;47.208;7.518;2023-04-09T01:09:02;10.00;91.10
38941;DHT22;43236;47.208;7.518;2023-04-09T01:12:00;9.90;91.60
38941;DHT22;43236;47.208;7.518;2023-04-09T01:14:55;9.90;91.50
38941;DHT22;43236;47.208;7.518;2023-04-09T01:17:51;9.90;91.60
38941;DHT22;43236;47.208;7.518;2023-04-09T01:20:41;9.80;91.70
38941;DHT22;43236;47.208;7.518;2023-04-09T01:23:36;9.80;91.60
38941;DHT22;43236;47.208;7.518;2023-04-09T01:26:37;9.70;91.80
38941;DHT22;43236;47.208;7.518;2023-04-09T01:29:30;9.70;91.90
38941;DHT22;43236;47.208;7.518;2023-04-09T01:32:19;9.70;91.90
38941;DHT22;43236;47.208;7.518;2023-04-09T01:35:08;9.70;92.10
38941;DHT22;43236;47.208;7.518;2023-04-09T01:37:56;9.60;92.10
38941;DHT22;43236;47.208;7.518;2023-04-09T01:40:44;9.60;92.30
38941;DHT22;43236;47.208;7.518;2023-04-09T01:43:32;9.50;92.30
38941;DHT22;43236;47.208;7.518;2023-04-09T01:46:22;9.50;92.50
38941;DHT22;43236;47.208;7.518;2023-04-09T01:49:10;9.40;92.50
38941;DHT22;43236;47.208;7.518;2023-04-09T01:51:57;9.40;92.50
38941;DHT22;43236;47.208;7.518;2023-04-09T01:54:45;9.40;92.50
38941;DHT22;43236;47.208;7.518;2023-04-09T01:57:32;9.30;92.60
38941;DHT22;43236;47.208;7.518;2023-04-09T02:00:20;9.30;92.70
38941;DHT22;43236;47.208;7.518;2023-04-09T02:03:12;9.30;92.70
38941;DHT22;43236;47.208;7.518;2023-04-09T02:06:04;9.20;92.80
38941;DHT22;43236;47.208;7.518;2023-04-09T02:08:54;9.20;92.80
38941;DHT22;43236;47.208;7.518;2023-04-09T02:11:45;9.20;92.90
38941;DHT22;43236;47.208;7.518;2023-04-09T02:14:34;9.10;92.80
38941;DHT22;43236;47.208;7.518;2023-04-09T02:17:22;9.10;93.00
38941;DHT22;43236;47.208;7.518;2023-04-09T02:20:15;9.00;93.30
38941;DHT22;43236;47.208;7.518;2023-04-09T02:23:02;9.00;93.40
38941;DHT22;43236;47.208;7.518;2023-04-09T02:25:50;9.00;93.50
38941;DHT22;43236;47.208;7.518;2023-04-09T02:28:37;9.00;93.50
38941;DHT22;43236;47.208;7.518;2023-04-09T02:31:24;9.00;93.60
38941;DHT22;43236;47.208;7.518;2023-04-09T02:34:11;9.00;93.50
38941;DHT22;43236;47.208;7.518;2023-04-09T02:36:59;9.00;93.50
38941;DHT22;43236;47.208;7.518;2023-04-09T02:39:46;8.90;93.40
38941;DHT22;43236;47.208;7.518;2023-04-09T02:42:33;8.90;93.50
38941;DHT22;43236;47.208;7.518;2023-04-09T02:45:20;8.90;93.50
38941;DHT22;43236;47.208;7.518;2023-04-09T02:48:07;8.80;93.50
38941;DHT22;43236;47.208;7.518;2023-04-09T02:50:54;8.80;93.50
38941;DHT22;43236;47.208;7.518;2023-04-09T02:53:42;8.80;93.60
38941;DHT22;43236;47.208;7.518;2023-04-09T02:56:30;8.80;93.60
38941;DHT22;43236;47.208;7.518;2023-04-09T02:59:17;8.80;93.70
38941;DHT22;43236;47.208;7.518;2023-04-09T03:02:04;8.80;93.70
38941;DHT22;43236;47.208;7.518;2023-04-09T03:04:51;8.80;93.80
38941;DHT22;43236;47.208;7.518;2023-04-09T03:07:38;8.80;93.80
38941;DHT22;43236;47.208;7.518;2023-04-09T03:10:27;8.80;93.70
38941;DHT22;43236;47.208;7.518;2023-04-09T03:13:14;8.80;93.80
38941;DHT22;43236;47.208;7.518;2023-04-09T03:16:01;8.70;93.60
38941;DHT22;43236;47.208;7.518;2023-04-09T03:18:48;8.70;93.70
38941;DHT22;43236;47.208;7.518;2023-04-09T03:21:35;8.70;93.60
38941;DHT22;43236;47.208;7.518;2023-04-09T03:24:22;8.60;93.50
38941;DHT22;43236;47.208;7.518;2023-04-09T03:27:10;8.60;93.50
38941;DHT22;43236;47.208;7.518;2023-04-09T03:29:58;8.60;93.50
38941;DHT22;43236;47.208;7.518;2023-04-09T03:32:45;8.60;93.60
38941;DHT22;43236;47.208;7.518;2023-04-09T03:35:32;8.50;93.50
38941;DHT22;43236;47.208;7.518;2023-04-09T03:38:19;8.50;93.50
38941;DHT22;43236;47.208;7.518;2023-04-09T03:41:06;8.50;93.60
38941;DHT22;43236;47.208;7.518;2023-04-09T03:43:54;8.40;93.60
38941;DHT22;43236;47.208;7.518;2023-04-09T03:46:41;8.40;93.80
38941;DHT22;43236;47.208;7.518;2023-04-09T03:49:28;8.40;93.90
38941;DHT22;43236;47.208;7.518;2023-04-09T03:52:15;8.30;93.80
38941;DHT22;43236;47.208;7.518;2023-04-09T03:55:03;8.30;93.90
38941;DHT22;43236;47.208;7.518;2023-04-09T03:57:50;8.30;93.90
38941;DHT22;43236;47.208;7.518;2023-04-09T04:00:39;8.30;93.90
38941;DHT22;43236;47.208;7.518;2023-04-09T04:03:26;8.20;94.00
38941;DHT22;43236;47.208;7.518;2023-04-09T04:06:12;8.20;94.00
38941;DHT22;43236;47.208;7.518;2023-04-09T04:09:00;8.20;94.10
38941;DHT22;43236;47.208;7.518;2023-04-09T04:11:47;8.20;94.10
38941;DHT22;43236;47.208;7.518;2023-04-09T04:14:34;8.20;94.20
38941;DHT22;43236;47.208;7.518;2023-04-09T04:17:22;8.20;94.10
38941;DHT22;43236;47.208;7.518;2023-04-09T04:20:10;8.20;94.30
38941;DHT22;43236;47.208;7.518;2023-04-09T04:22:57;8.10;94.20
38941;DHT22;43236;47.208;7.518;2023-04-09T04:25:44;8.10;94.30
38941;DHT22;43236;47.208;7.518;2023-04-09T04:28:31;8.10;94.40
38941;DHT22;43236;47.208;7.518;2023-04-09T04:31:18;8.10;94.40
38941;DHT22;43236;47.208;7.518;2023-04-09T04:34:07;8.10;94.30
38941;DHT22;43236;47.208;7.518;2023-04-09T04:36:54;8.00;94.40
38941;DHT22;43236;47.208;7.518;2023-04-09T04:39:41;8.00;94.40
38941;DHT22;43236;47.208;7.518;2023-04-09T04:42:28;8.00;94.50
38941;DHT22;43236;47.208;7.518;2023-04-09T04:45:15;8.10;94.50
38941;DHT22;43236;47.208;7.518;2023-04-09T04:48:02;8.00;94.50
38941;DHT22;43236;47.208;7.518;2023-04-09T04:50:55;8.00;94.60
38941;DHT22;43236;47.208;7.518;2023-04-09T04:53:43;8.00;94.80
38941;DHT22;43236;47.208;7.518;2023-04-09T04:56:30;8.00;94.70
38941;DHT22;43236;47.208;7.518;2023-04-09T04:59:17;7.90;94.80
38941;DHT22;43236;47.208;7.518;2023-04-09T05:02:04;7.90;95.00
38941;DHT22;43236;47.208;7.518;2023-04-09T05:04:51;7.90;95.00
38941;DHT22;43236;47.208;7.518;2023-04-09T05:07:39;7.90;95.10
38941;DHT22;43236;47.208;7.518;2023-04-09T05:10:26;7.90;95.20
38941;DHT22;43236;47.208;7.518;2023-04-09T05:13:13;7.90;95.30
38941;DHT22;43236;47.208;7.518;2023-04-09T05:16:00;7.90;95.30
38941;DHT22;43236;47.208;7.518;2023-04-09T05:18:48;8.00;95.40
38941;DHT22;43236;47.208;7.518;2023-04-09T05:21:35;8.00;95.40
38941;DHT22;43236;47.208;7.518;2023-04-09T05:24:24;8.00;95.40
38941;DHT22;43236;47.208;7.518;2023-04-09T05:27:11;8.00;95.50
38941;DHT22;43236;47.208;7.518;2023-04-09T05:29:58;8.00;95.50
38941;DHT22;43236;47.208;7.518;2023-04-09T05:32:45;8.10;95.70
38941;DHT22;43236;47.208;7.518;2023-04-09T05:35:32;8.10;95.70
38941;DHT22;43236;47.208;7.518;2023-04-09T05:38:19;8.20;95.70
38941;DHT22;43236;47.208;7.518;2023-04-09T05:41:07;8.20;95.70
38941;DHT22;43236;47.208;7.518;2023-04-09T05:43:54;8.20;95.50
38941;DHT22;43236;47.208;7.518;2023-04-09T05:46:44;8.20;95.60
38941;DHT22;43236;47.208;7.518;2023-04-09T05:49:31;8.20;95.70
38941;DHT22;43236;47.208;7.518;2023-04-09T05:52:18;8.30;95.80
38941;DHT22;43236;47.208;7.518;2023-04-09T05:55:06;8.30;95.80
38941;DHT22;43236;47.208;7.518;2023-04-09T05:57:55;8.40;95.80
38941;DHT22;43236;47.208;7.518;2023-04-09T06:00:43;8.40;95.90
38941;DHT22;43236;47.208;7.518;2023-04-09T06:03:30;8.40;95.90
38941;DHT22;43236;47.208;7.518;2023-04-09T06:06:17;8.50;96.00
38941;DHT22;43236;47.208;7.518;2023-04-09T06:09:04;8.50;95.70
38941;DHT22;43236;47.208;7.518;2023-04-09T06:11:51;8.50;95.80
38941;DHT22;43236;47.208;7.518;2023-04-09T06:14:40;8.60;95.80
38941;DHT22;43236;47.208;7.518;2023-04-09T06:17:27;8.50;95.70
38941;DHT22;43236;47.208;7.518;2023-04-09T06:20:15;8.60;95.70
38941;DHT22;43236;47.208;7.518;2023-04-09T06:23:02;8.70;95.70
38941;DHT22;43236;47.208;7.518;2023-04-09T06:25:49;8.80;95.50
38941;DHT22;43236;47.208;7.518;2023-04-09T06:28:36;8.80;95.50
38941;DHT22;43236;47.208;7.518;2023-04-09T06:31:24;8.90;95.10
38941;DHT22;43236;47.208;7.518;2023-04-09T06:34:12;8.90;95.20
38941;DHT22;43236;47.208;7.518;2023-04-09T06:36:59;9.00;95.20
38941;DHT22;43236;47.208;7.518;2023-04-09T06:39:46;9.10;95.00
38941;DHT22;43236;47.208;7.518;2023-04-09T06:42:33;9.20;94.80
38941;DHT22;43236;47.208;7.518;2023-04-09T06:45:20;9.20;95.00
38941;DHT22;43236;47.208;7.518;2023-04-09T06:48:09;9.30;94.80
38941;DHT22;43236;47.208;7.518;2023-04-09T06:50:57;9.30;94.40
38941;DHT22;43236;47.208;7.518;2023-04-09T06:53:44;9.30;94.50
38941;DHT22;43236;47.208;7.518;2023-04-09T06:56:33;9.30;94.20
38941;DHT22;43236;47.208;7.518;2023-04-09T06:59:20;9.40;93.70
38941;DHT22;43236;47.208;7.518;2023-04-09T07:02:07;9.40;93.40
38941;DHT22;43236;47.208;7.518;2023-04-09T07:04:55;9.40;93.40
38941;DHT22;43236;47.208;7.518;2023-04-09T07:07:43;9.40;93.20
38941;DHT22;43236;47.208;7.518;2023-04-09T07:10:30;9.40;92.80
38941;DHT22;43236;47.208;7.518;2023-04-09T07:13:17;9.40;92.80
38941;DHT22;43236;47.208;7.518;2023-04-09T07:16:04;9.40;92.80
38941;DHT22;43236;47.208;7.518;2023-04-09T07:18:51;9.40;93.00
38941;DHT22;43236;47.208;7.518;2023-04-09T07:21:40;9.30;92.80
38941;DHT22;43236;47.208;7.518;2023-04-09T07:24:27;9.20;92.90
38941;DHT22;43236;47.208;7.518;2023-04-09T07:27:15;9.10;93.00
38941;DHT22;43236;47.208;7.518;2023-04-09T07:30:03;9.00;93.20
38941;DHT22;43236;47.208;7.518;2023-04-09T07:32:50;9.00;93.10
38941;DHT22;43236;47.208;7.518;2023-04-09T07:35:37;9.00;93.20
38941;DHT22;43236;47.208;7.518;2023-04-09T07:38:27;9.00;93.20
38941;DHT22;43236;47.208;7.518;2023-04-09T07:41:14;9.00;93.00
38941;DHT22;43236;47.208;7.518;2023-04-09T07:44:01;8.90;93.10
38941;DHT22;43236;47.208;7.518;2023-04-09T07:46:48;8.90;93.10
38941;DHT22;43236;47.208;7.518;2023-04-09T07:49:36;8.80;93.10
38941;DHT22;43236;47.208;7.518;2023-04-09T07:52:23;8.80;93.00
38941;DHT22;43236;47.208;7.518;2023-04-09T07:55:11;8.80;93.00
38941;DHT22;43236;47.208;7.518;2023-04-09T07:57:59;8.80;93.10
38941;DHT22;43236;47.208;7.518;2023-04-09T08:00:47;8.80;93.20
38941;DHT22;43236;47.208;7.518;2023-04-09T08:03:34;8.80;93.30
38941;DHT22;43236;47.208;7.518;2023-04-09T08:06:21;8.80;93.20
38941;DHT22;43236;47.208;7.518;2023-04-09T08:09:08;8.80;92.90
38941;DHT22;43236;47.208;7.518;2023-04-09T08:11:57;8.80;93.20
38941;DHT22;43236;47.208;7.518;2023-04-09T08:14:44;8.80;93.20
38941;DHT22;43236;47.208;7.518;2023-04-09T08:17:31;8.80;93.20
38941;DHT22;43236;47.208;7.518;2023-04-09T08:20:18;8.90;93.50
38941;DHT22;43236;47.208;7.518;2023-04-09T08:23:05;9.00;93.70
38941;DHT22;43236;47.208;7.518;2023-04-09T08:25:53;9.10;93.80
38941;DHT22;43236;47.208;7.518;2023-04-09T08:28:41;9.20;93.80
38941;DHT22;43236;47.208;7.518;2023-04-09T08:31:28;9.30;93.50
38941;DHT22;43236;47.208;7.518;2023-04-09T08:34:15;9.50;93.10
38941;DHT22;43236;47.208;7.518;2023-04-09T08:37:05;9.60;93.40
38941;DHT22;43236;47.208;7.518;2023-04-09T08:39:52;9.70;93.30
38941;DHT22;43236;47.208;7.518;2023-04-09T08:42:43;9.70;93.00
38941;DHT22;43236;47.208;7.518;2023-04-09T08:45:32;9.80;92.80
38941;DHT22;43236;47.208;7.518;2023-04-09T08:48:19;9.90;92.70
38941;DHT22;43236;47.208;7.518;2023-04-09T08:51:07;9.90;92.60
38941;DHT22;43236;47.208;7.518;2023-04-09T08:53:56;10.00;91.70
38941;DHT22;43236;47.208;7.518;2023-04-09T08:56:43;10.00;92.00
38941;DHT22;43236;47.208;7.518;2023-04-09T08:59:30;10.00;92.20
38941;DHT22;43236;47.208;7.518;2023-04-09T09:02:22;10.00;91.70
38941;DHT22;43236;47.208;7.518;2023-04-09T09:05:09;10.10;91.80
38941;DHT22;43236;47.208;7.518;2023-04-09T09:07:58;10.10;91.80
38941;DHT22;43236;47.208;7.518;2023-04-09T09:10:46;10.20;91.60
38941;DHT22;43236;47.208;7.518;2023-04-09T09:13:33;10.20;91.80
38941;DHT22;43236;47.208;7.518;2023-04-09T09:16:20;10.30;91.70
38941;DHT22;43236;47.208;7.518;2023-04-09T09:19:09;10.40;91.30
38941;DHT22;43236;47.208;7.518;2023-04-09T09:21:57;10.40;90.90
38941;DHT22;43236;47.208;7.518;2023-04-09T09:24:45;10.40;91.10
38941;DHT22;43236;47.208;7.518;2023-04-09T09:27:34;10.40;91.20
38941;DHT22;43236;47.208;7.518;2023-04-09T09:30:25;10.50;91.10
38941;DHT22;43236;47.208;7.518;2023-04-09T09:33:12;10.50;91.10
38941;DHT22;43236;47.208;7.518;2023-04-09T09:36:00;10.50;91.00
38941;DHT22;43236;47.208;7.518;2023-04-09T09:38:53;10.60;90.80
38941;DHT22;43236;47.208;7.518;2023-04-09T09:41:41;10.60;90.90
38941;DHT22;43236;47.208;7.518;2023-04-09T09:44:32;10.70;90.70
38941;DHT22;43236;47.208;7.518;2023-04-09T09:47:20;10.70;90.50
38941;DHT22;43236;47.208;7.518;2023-04-09T09:50:08;10.70;90.50
38941;DHT22;43236;47.208;7.518;2023-04-09T09:53:01;10.70;90.50
38941;DHT22;43236;47.208;7.518;2023-04-09T09:55:52;10.80;90.40
38941;DHT22;43236;47.208;7.518;2023-04-09T09:58:47;10.80;91.00
38941;DHT22;43236;47.208;7.518;2023-04-09T10:01:34;10.90;90.10
38941;DHT22;43236;47.208;7.518;2023-04-09T10:04:22;10.90;88.30
38941;DHT22;43236;47.208;7.518;2023-04-09T10:07:09;10.90;89.40
38941;DHT22;43236;47.208;7.518;2023-04-09T10:09:58;11.00;89.30
38941;DHT22;43236;47.208;7.518;2023-04-09T10:12:46;11.00;88.80
38941;DHT22;43236;47.208;7.518;2023-04-09T10:15:34;11.00;87.40
38941;DHT22;43236;47.208;7.518;2023-04-09T10:18:21;11.10;89.70
38941;DHT22;43236;47.208;7.518;2023-04-09T10:21:16;11.30;90.00
38941;DHT22;43236;47.208;7.518;2023-04-09T10:24:05;11.20;89.80
38941;DHT22;43236;47.208;7.518;2023-04-09T10:27:08;11.30;88.60
38941;DHT22;43236;47.208;7.518;2023-04-09T10:29:55;11.30;87.60
38941;DHT22;43236;47.208;7.518;2023-04-09T10:32:45;11.40;88.00
38941;DHT22;43236;47.208;7.518;2023-04-09T10:35:32;11.50;87.30
38941;DHT22;43236;47.208;7.518;2023-04-09T10:38:32;11.50;86.30
38941;DHT22;43236;47.208;7.518;2023-04-09T10:41:21;11.50;86.70
38941;DHT22;43236;47.208;7.518;2023-04-09T10:44:21;11.60;85.90
38941;DHT22;43236;47.208;7.518;2023-04-09T10:47:09;11.60;85.70
38941;DHT22;43236;47.208;7.518;2023-04-09T10:49:57;11.70;85.20
38941;DHT22;43236;47.208;7.518;2023-04-09T10:52:45;11.70;82.80
38941;DHT22;43236;47.208;7.518;2023-04-09T10:55:34;11.70;84.30
38941;DHT22;43236;47.208;7.518;2023-04-09T10:58:22;11.80;86.20
38941;DHT22;43236;47.208;7.518;2023-04-09T11:01:20;11.80;85.70
38941;DHT22;43236;47.208;7.518;2023-04-09T11:04:15;11.90;85.90
38941;DHT22;43236;47.208;7.518;2023-04-09T11:07:03;11.90;85.60
38941;DHT22;43236;47.208;7.518;2023-04-09T11:09:52;12.00;84.80
38941;DHT22;43236;47.208;7.518;2023-04-09T11:12:39;12.00;84.60
38941;DHT22;43236;47.208;7.518;2023-04-09T11:15:28;12.10;84.70
38941;DHT22;43236;47.208;7.518;2023-04-09T11:18:19;12.20;83.50
38941;DHT22;43236;47.208;7.518;2023-04-09T11:21:06;12.20;84.00
38941;DHT22;43236;47.208;7.518;2023-04-09T11:23:54;12.30;82.90
38941;DHT22;43236;47.208;7.518;2023-04-09T11:26:41;12.30;81.60
38941;DHT22;43236;47.208;7.518;2023-04-09T11:29:29;12.30;80.60
38941;DHT22;43236;47.208;7.518;2023-04-09T11:32:16;12.40;80.30
38941;DHT22;43236;47.208;7.518;2023-04-09T11:35:10;12.40;81.20
38941;DHT22;43236;47.208;7.518;2023-04-09T11:37:58;12.40;80.30
38941;DHT22;43236;47.208;7.518;2023-04-09T11:40:45;12.40;79.10
38941;DHT22;43236;47.208;7.518;2023-04-09T11:43:35;12.50;81.30
38941;DHT22;43236;47.208;7.518;2023-04-09T11:46:22;12.50;80.20
38941;DHT22;43236;47.208;7.518;2023-04-09T11:49:10;12.60;79.80
38941;DHT22;43236;47.208;7.518;2023-04-09T11:52:00;12.60;80.40
38941;DHT22;43236;47.208;7.518;2023-04-09T11:54:48;12.70;82.40
38941;DHT22;43236;47.208;7.518;2023-04-09T11:57:40;12.80;80.90
38941;DHT22;43236;47.208;7.518;2023-04-09T12:00:28;12.80;78.90
38941;DHT22;43236;47.208;7.518;2023-04-09T12:03:15;12.90;79.90
38941;DHT22;43236;47.208;7.518;2023-04-09T12:06:04;12.90;79.20
38941;DHT22;43236;47.208;7.518;2023-04-09T12:08:54;12.90;79.40
38941;DHT22;43236;47.208;7.518;2023-04-09T12:11:42;12.90;79.60
38941;DHT22;43236;47.208;7.518;2023-04-09T12:14:30;13.00;78.70
38941;DHT22;43236;47.208;7.518;2023-04-09T12:17:19;13.00;81.40
38941;DHT22;43236;47.208;7.518;2023-04-09T12:20:07;13.10;79.10
38941;DHT22;43236;47.208;7.518;2023-04-09T12:22:55;13.10;79.60
38941;DHT22;43236;47.208;7.518;2023-04-09T12:25:44;13.20;77.10
38941;DHT22;43236;47.208;7.518;2023-04-09T12:28:32;13.20;76.80
38941;DHT22;43236;47.208;7.518;2023-04-09T12:31:19;13.20;76.50
38941;DHT22;43236;47.208;7.518;2023-04-09T12:34:06;13.20;77.50
38941;DHT22;43236;47.208;7.518;2023-04-09T12:36:54;13.20;77.80
38941;DHT22;43236;47.208;7.518;2023-04-09T12:39:41;13.20;76.90
38941;DHT22;43236;47.208;7.518;2023-04-09T12:42:29;13.30;77.90
38941;DHT22;43236;47.208;7.518;2023-04-09T12:45:17;13.30;77.60
38941;DHT22;43236;47.208;7.518;2023-04-09T12:48:04;13.40;76.40
38941;DHT22;43236;47.208;7.518;2023-04-09T12:50:51;13.40;77.60
38941;DHT22;43236;47.208;7.518;2023-04-09T12:53:39;13.40;77.10
38941;DHT22;43236;47.208;7.518;2023-04-09T12:56:26;13.40;77.50
38941;DHT22;43236;47.208;7.518;2023-04-09T12:59:14;13.50;76.70
38941;DHT22;43236;47.208;7.518;2023-04-09T13:02:01;13.50;75.30
38941;DHT22;43236;47.208;7.518;2023-04-09T13:04:48;13.50;76.00
38941;DHT22;43236;47.208;7.518;2023-04-09T13:07:36;13.50;76.90
38941;DHT22;43236;47.208;7.518;2023-04-09T13:10:23;13.60;77.30
38941;DHT22;43236;47.208;7.518;2023-04-09T13:13:10;13.60;75.20
38941;DHT22;43236;47.208;7.518;2023-04-09T13:16:01;13.70;75.40
38941;DHT22;43236;47.208;7.518;2023-04-09T13:18:48;13.70;75.40
38941;DHT22;43236;47.208;7.518;2023-04-09T13:21:36;13.70;76.50
38941;DHT22;43236;47.208;7.518;2023-04-09T13:24:25;13.70;76.60
38941;DHT22;43236;47.208;7.518;2023-04-09T13:27:12;13.70;75.70
38941;DHT22;43236;47.208;7.518;2023-04-09T13:29:59;13.80;75.30
38941;DHT22;43236;47.208;7.518;2023-04-09T13:32:48;13.80;73.80
38941;DHT22;43236;47.208;7.518;2023-04-09T13:35:35;13.80;74.60
38941;DHT22;43236;47.208;7.518;2023-04-09T13:38:22;13.80;74.30
38941;DHT22;43236;47.208;7.518;2023-04-09T13:41:09;13.90;75.20
38941;DHT22;43236;47.208;7.518;2023-04-09T13:43:56;13.90;75.20
38941;DHT22;43236;47.208;7.518;2023-04-09T13:46:43;13.90;74.50
38941;DHT22;43236;47.208;7.518;2023-04-09T13:49:31;13.90;73.40
38941;DHT22;43236;47.208;7.518;2023-04-09T13:52:18;13.90;74.20
38941;DHT22;43236;47.208;7.518;2023-04-09T13:55:07;13.90;73.80
38941;DHT22;43236;47.208;7.518;2023-04-09T13:57:54;13.90;72.70
38941;DHT22;43236;47.208;7.518;2023-04-09T14:00:41;14.00;73.20
38941;DHT22;43236;47.208;7.518;2023-04-09T14:03:29;14.00;75.30
38941;DHT22;43236;47.208;7.518;2023-04-09T14:06:17;14.00;73.20
38941;DHT22;43236;47.208;7.518;2023-04-09T14:09:04;14.10;73.60
38941;DHT22;43236;47.208;7.518;2023-04-09T14:11:51;14.10;73.50
38941;DHT22;43236;47.208;7.518;2023-04-09T14:14:39;14.10;72.90
38941;DHT22;43236;47.208;7.518;2023-04-09T14:17:26;14.10;72.40
38941;DHT22;43236;47.208;7.518;2023-04-09T14:20:13;14.10;73.50
38941;DHT22;43236;47.208;7.518;2023-04-09T14:23:01;14.10;74.10
38941;DHT22;43236;47.208;7.518;2023-04-09T14:25:48;14.10;73.60
38941;DHT22;43236;47.208;7.518;2023-04-09T14:28:36;14.20;72.90
38941;DHT22;43236;47.208;7.518;2023-04-09T14:31:23;14.20;72.40
38941;DHT22;43236;47.208;7.518;2023-04-09T14:34:10;14.20;72.80
38941;DHT22;43236;47.208;7.518;2023-04-09T14:36:57;14.20;72.10
38941;DHT22;43236;47.208;7.518;2023-04-09T14:39:45;14.30;72.70
38941;DHT22;43236;47.208;7.518;2023-04-09T14:42:35;14.20;71.50
38941;DHT22;43236;47.208;7.518;2023-04-09T14:45:22;14.30;72.30
38941;DHT22;43236;47.208;7.518;2023-04-09T14:48:09;14.30;72.00
38941;DHT22;43236;47.208;7.518;2023-04-09T14:50:57;14.30;71.60
38941;DHT22;43236;47.208;7.518;2023-04-09T14:53:44;14.30;71.80
38941;DHT22;43236;47.208;7.518;2023-04-09T14:56:32;14.40;71.90
38941;DHT22;43236;47.208;7.518;2023-04-09T14:59:19;14.40;71.30
38941;DHT22;43236;47.208;7.518;2023-04-09T15:02:06;14.40;70.80
38941;DHT22;43236;47.208;7.518;2023-04-09T15:04:53;14.40;71.40
38941;DHT22;43236;47.208;7.518;2023-04-09T15:07:40;14.40;70.30
38941;DHT22;43236;47.208;7.518;2023-04-09T15:10:28;14.40;71.20
38941;DHT22;43236;47.208;7.518;2023-04-09T15:13:17;14.40;70.80
38941;DHT22;43236;47.208;7.518;2023-04-09T15:16:04;14.50;70.60
38941;DHT22;43236;47.208;7.518;2023-04-09T15:18:52;14.50;71.10
38941;DHT22;43236;47.208;7.518;2023-04-09T15:21:40;14.50;70.90
38941;DHT22;43236;47.208;7.518;2023-04-09T15:24:27;14.50;69.90
38941;DHT22;43236;47.208;7.518;2023-04-09T15:27:14;14.50;70.20
38941;DHT22;43236;47.208;7.518;2023-04-09T15:30:03;14.50;69.90
38941;DHT22;43236;47.208;7.518;2023-04-09T15:32:51;14.50;70.40
38941;DHT22;43236;47.208;7.518;2023-04-09T15:35:38;14.50;70.10
38941;DHT22;43236;47.208;7.518;2023-04-09T15:38:25;14.50;70.00
38941;DHT22;43236;47.208;7.518;2023-04-09T15:41:12;14.50;69.10
38941;DHT22;43236;47.208;7.518;2023-04-09T15:44:01;14.50;68.30
38941;DHT22;43236;47.208;7.518;2023-04-09T15:46:50;14.50;71.20
38941;DHT22;43236;47.208;7.518;2023-04-09T15:49:37;14.50;70.00
38941;DHT22;43236;47.208;7.518;2023-04-09T15:52:24;14.60;69.40
38941;DHT22;43236;47.208;7.518;2023-04-09T15:55:11;14.60;69.20
38941;DHT22;43236;47.208;7.518;2023-04-09T15:57:58;14.60;68.80
38941;DHT22;43236;47.208;7.518;2023-04-09T16:00:45;14.60;69.70
38941;DHT22;43236;47.208;7.518;2023-04-09T16:03:36;14.50;69.20
38941;DHT22;43236;47.208;7.518;2023-04-09T16:06:25;14.60;69.20
38941;DHT22;43236;47.208;7.518;2023-04-09T16:09:13;14.60;69.10
38941;DHT22;43236;47.208;7.518;2023-04-09T16:12:00;14.60;68.70
38941;DHT22;43236;47.208;7.518;2023-04-09T16:14:47;14.60;68.40
38941;DHT22;43236;47.208;7.518;2023-04-09T16:17:34;14.60;68.70
38941;DHT22;43236;47.208;7.518;2023-04-09T16:20:22;14.60;68.00
38941;DHT22;43236;47.208;7.518;2023-04-09T16:23:10;14.60;67.70
38941;DHT22;43236;47.208;7.518;2023-04-09T16:25:57;14.60;69.00
38941;DHT22;43236;47.208;7.518;2023-04-09T16:28:44;14.70;68.40
38941;DHT22;43236;47.208;7.518;2023-04-09T16:31:31;14.70;68.50
38941;DHT22;43236;47.208;7.518;2023-04-09T16:34:18;14.70;67.10
38941;DHT22;43236;47.208;7.518;2023-04-09T16:37:07;14.70;68.00
38941;DHT22;43236;47.208;7.518;2023-04-09T16:39:54;14.70;67.80
38941;DHT22;43236;47.208;7.518;2023-04-09T16:42:42;14.70;66.80
38941;DHT22;43236;47.208;7.518;2023-04-09T16:45:29;14.70;67.60
38941;DHT22;43236;47.208;7.518;2023-04-09T16:48:16;14.70;68.10
38941;DHT22;43236;47.208;7.518;2023-04-09T16:51:04;14.70;67.30
38941;DHT22;43236;47.208;7.518;2023-04-09T16:53:52;14.70;68.90
38941;DHT22;43236;47.208;7.518;2023-04-09T16:56:39;14.60;70.30
38941;DHT22;43236;47.208;7.518;2023-04-09T16:59:26;14.60;70.50
38941;DHT22;43236;47.208;7.518;2023-04-09T17:02:13;14.50;69.60
38941;DHT22;43236;47.208;7.518;2023-04-09T17:05:00;14.50;68.60
38941;DHT22;43236;47.208;7.518;2023-04-09T17:07:48;14.40;74.60
38941;DHT22;43236;47.208;7.518;2023-04-09T17:10:36;14.30;67.60
38941;DHT22;43236;47.208;7.518;2023-04-09T17:13:24;14.30;70.30
38941;DHT22;43236;47.208;7.518;2023-04-09T17:16:11;14.30;69.40
38941;DHT22;43236;47.208;7.518;2023-04-09T17:18:59;14.10;70.00
38941;DHT22;43236;47.208;7.518;2023-04-09T17:21:46;14.10;68.90
38941;DHT22;43236;47.208;7.518;2023-04-09T17:24:33;14.00;70.70
38941;DHT22;43236;47.208;7.518;2023-04-09T17:27:22;14.00;72.70
38941;DHT22;43236;47.208;7.518;2023-04-09T17:30:10;14.00;70.70
38941;DHT22;43236;47.208;7.518;2023-04-09T17:32:57;13.90;71.20
38941;DHT22;43236;47.208;7.518;2023-04-09T17:35:45;13.90;69.10
38941;DHT22;43236;47.208;7.518;2023-04-09T17:38:32;13.90;74.30
38941;DHT22;43236;47.208;7.518;2023-04-09T17:41:19;13.80;72.30
38941;DHT22;43236;47.208;7.518;2023-04-09T17:44:07;13.80;74.70
38941;DHT22;43236;47.208;7.518;2023-04-09T17:46:54;13.70;72.20
38941;DHT22;43236;47.208;7.518;2023-04-09T17:49:41;13.60;73.60